EZY15NF EGAA-GCRR
Flight info
| Callsign | EZY15NF |
|---|---|
| Flight time | 4h 9m |
| Altitude | 34000 |
| Route | MAC DCT DEGOS DCT TUGSI DCT TUVEN/M077F340 DCT TULTA/N0449F340 DCT KOPIP DCT KORUL DCT ASPOR DCT TAKAV DCT VEDOD UN857 TERTO |
| Aircraft | A320/M-SDE2E3FGHIJ1RWXYZ/LB1 |
Departure
| Time | 2026-04-29 12:48 |
|---|---|
| Airport | Belfast International Airport (EGAA) |
Arrival
| Time | 2026-04-29 16:57 |
|---|---|
| Airport | César Manrique-Lanzarote Airport (GCRR) |
| Time | Latitude | Longitude | Altitude | Speed | Heading |
|---|---|---|---|---|---|
| 2026-04-29 12:00 | 54.66082 | -6.21649 | 272 ft | 0 kts | 335° |
| 2026-04-29 12:17 | 54.66081 | -6.21649 | 272 ft | 0 kts | 335° |
| 2026-04-29 12:35 | 54.66074 | -6.21643 | 272 ft | 4 kts | 335° |
| 2026-04-29 12:35 | 54.66050 | -6.21623 | 275 ft | 4 kts | 335° |
| 2026-04-29 12:36 | 54.66025 | -6.21604 | 277 ft | 4 kts | 335° |
| 2026-04-29 12:36 | 54.66001 | -6.21584 | 274 ft | 4 kts | 335° |
| 2026-04-29 12:36 | 54.65977 | -6.21565 | 275 ft | 3 kts | 335° |
| 2026-04-29 12:36 | 54.65957 | -6.21552 | 276 ft | 4 kts | 3° |
| 2026-04-29 12:37 | 54.65937 | -6.21569 | 276 ft | 4 kts | 59° |
| 2026-04-29 12:37 | 54.65930 | -6.21590 | 273 ft | 3 kts | 66° |
| 2026-04-29 12:37 | 54.65928 | -6.21597 | 274 ft | 0 kts | 65° |
| 2026-04-29 12:41 | 54.65932 | -6.21592 | 272 ft | 1 kts | 35° |
| 2026-04-29 12:41 | 54.65936 | -6.21605 | 272 ft | 1 kts | 290° |
| 2026-04-29 12:41 | 54.65930 | -6.21617 | 275 ft | 3 kts | 241° |
| 2026-04-29 12:42 | 54.65915 | -6.21659 | 273 ft | 4 kts | 237° |
| 2026-04-29 12:42 | 54.65895 | -6.21720 | 272 ft | 9 kts | 244° |
| 2026-04-29 12:42 | 54.65865 | -6.21830 | 276 ft | 9 kts | 245° |
| 2026-04-29 12:42 | 54.65838 | -6.21931 | 272 ft | 10 kts | 245° |
| 2026-04-29 12:43 | 54.65812 | -6.22029 | 272 ft | 8 kts | 245° |
| 2026-04-29 12:43 | 54.65787 | -6.22130 | 273 ft | 11 kts | 251° |
| 2026-04-29 12:43 | 54.65768 | -6.22282 | 272 ft | 15 kts | 262° |
| 2026-04-29 12:43 | 54.65757 | -6.22445 | 272 ft | 13 kts | 263° |
| 2026-04-29 12:44 | 54.65748 | -6.22586 | 272 ft | 11 kts | 265° |
| 2026-04-29 12:44 | 54.65743 | -6.22704 | 272 ft | 9 kts | 266° |
| 2026-04-29 12:44 | 54.65736 | -6.22799 | 274 ft | 7 kts | 257° |
| 2026-04-29 12:44 | 54.65714 | -6.22888 | 272 ft | 9 kts | 238° |
| 2026-04-29 12:45 | 54.65679 | -6.22975 | 272 ft | 8 kts | 234° |
| 2026-04-29 12:45 | 54.65640 | -6.23067 | 272 ft | 10 kts | 234° |
| 2026-04-29 12:45 | 54.65599 | -6.23164 | 272 ft | 10 kts | 234° |
| 2026-04-29 12:45 | 54.65558 | -6.23261 | 272 ft | 10 kts | 233° |
| 2026-04-29 12:46 | 54.65502 | -6.23340 | 272 ft | 11 kts | 202° |
| 2026-04-29 12:46 | 54.65434 | -6.23387 | 275 ft | 10 kts | 202° |
| 2026-04-29 12:46 | 54.65373 | -6.23405 | 272 ft | 10 kts | 166° |
| 2026-04-29 12:46 | 54.65308 | -6.23356 | 272 ft | 8 kts | 155° |
| 2026-04-29 12:47 | 54.65277 | -6.23314 | 275 ft | 3 kts | 74° |
| 2026-04-29 12:47 | 54.65295 | -6.23262 | 272 ft | 11 kts | 62° |
| 2026-04-29 12:47 | 54.65429 | -6.22760 | 272 ft | 80 kts | 65° |
| 2026-04-29 12:47 | 54.65750 | -6.21569 | 273 ft | 136 kts | 65° |
| 2026-04-29 12:48 | 54.66192 | -6.19894 | 470 ft | 162 kts | 65° |
| 2026-04-29 12:48 | 54.66682 | -6.18121 | 1061 ft | 166 kts | 67° |
| 2026-04-29 12:48 | 54.67180 | -6.16311 | 1658 ft | 170 kts | 69° |
| 2026-04-29 12:48 | 54.67586 | -6.14312 | 1886 ft | 186 kts | 91° |
| 2026-04-29 12:49 | 54.67174 | -6.12159 | 2171 ft | 202 kts | 128° |
| 2026-04-29 12:49 | 54.65956 | -6.10811 | 2617 ft | 219 kts | 165° |
| 2026-04-29 12:49 | 54.64380 | -6.11108 | 3135 ft | 247 kts | 201° |
| 2026-04-29 12:49 | 54.62936 | -6.12878 | 3842 ft | 261 kts | 217° |
| 2026-04-29 12:50 | 54.61633 | -6.15135 | 4596 ft | 269 kts | 222° |
| 2026-04-29 12:50 | 54.60379 | -6.17556 | 5367 ft | 273 kts | 224° |
| 2026-04-29 12:50 | 54.59111 | -6.20033 | 6126 ft | 277 kts | 223° |
| 2026-04-29 12:50 | 54.57810 | -6.22516 | 6856 ft | 281 kts | 222° |
| 2026-04-29 12:51 | 54.56469 | -6.25006 | 7530 ft | 285 kts | 222° |
| 2026-04-29 12:51 | 54.55097 | -6.27501 | 8226 ft | 289 kts | 221° |
| 2026-04-29 12:51 | 54.53697 | -6.30011 | 8924 ft | 292 kts | 221° |
| 2026-04-29 12:51 | 54.52271 | -6.32540 | 9623 ft | 296 kts | 220° |
| 2026-04-29 12:52 | 54.50819 | -6.35098 | 10255 ft | 304 kts | 220° |
| 2026-04-29 12:52 | 54.49281 | -6.37784 | 10410 ft | 327 kts | 220° |
| 2026-04-29 12:52 | 54.47627 | -6.40665 | 10535 ft | 350 kts | 221° |
| 2026-04-29 12:52 | 54.45868 | -6.43734 | 10666 ft | 370 kts | 221° |
| 2026-04-29 12:53 | 54.44023 | -6.46966 | 10921 ft | 385 kts | 221° |
| 2026-04-29 12:53 | 54.42137 | -6.50281 | 11429 ft | 391 kts | 221° |
| 2026-04-29 12:53 | 54.40228 | -6.53633 | 12014 ft | 394 kts | 221° |
| 2026-04-29 12:53 | 54.38303 | -6.57009 | 12591 ft | 398 kts | 221° |
| 2026-04-29 12:54 | 54.36360 | -6.60409 | 13219 ft | 399 kts | 221° |
| 2026-04-29 12:54 | 54.34464 | -6.63733 | 14454 ft | 381 kts | 220° |
| 2026-04-29 12:54 | 54.32624 | -6.66952 | 15300 ft | 376 kts | 220° |
| 2026-04-29 12:54 | 54.30785 | -6.70151 | 15916 ft | 378 kts | 220° |
| 2026-04-29 12:55 | 54.28928 | -6.73362 | 16459 ft | 381 kts | 220° |
| 2026-04-29 12:55 | 54.27052 | -6.76595 | 16981 ft | 384 kts | 220° |
| 2026-04-29 12:55 | 54.25161 | -6.79856 | 17495 ft | 388 kts | 220° |
| 2026-04-29 12:55 | 54.23258 | -6.83137 | 18023 ft | 391 kts | 220° |
| 2026-04-29 12:56 | 54.21334 | -6.86453 | 18519 ft | 395 kts | 220° |
| 2026-04-29 12:56 | 54.19394 | -6.89798 | 18981 ft | 398 kts | 220° |
| 2026-04-29 12:56 | 54.17398 | -6.93085 | 19436 ft | 400 kts | 217° |
| 2026-04-29 12:56 | 54.15345 | -6.96207 | 19871 ft | 402 kts | 216° |
| 2026-04-29 12:57 | 54.13208 | -6.99302 | 20303 ft | 404 kts | 214° |
| 2026-04-29 12:57 | 54.11039 | -7.02383 | 20765 ft | 407 kts | 214° |
| 2026-04-29 12:57 | 54.08853 | -7.05481 | 21204 ft | 410 kts | 214° |
| 2026-04-29 12:57 | 54.06628 | -7.08658 | 21658 ft | 413 kts | 215° |
| 2026-04-29 12:58 | 54.04455 | -7.11795 | 22092 ft | 417 kts | 215° |
| 2026-04-29 12:58 | 54.02217 | -7.14946 | 22535 ft | 417 kts | 210° |
| 2026-04-29 12:58 | 53.99766 | -7.17528 | 22946 ft | 414 kts | 200° |
| 2026-04-29 12:58 | 53.97117 | -7.19366 | 23346 ft | 409 kts | 190° |
| 2026-04-29 12:59 | 53.94359 | -7.20507 | 23748 ft | 409 kts | 186° |
| 2026-04-29 12:59 | 53.91573 | -7.21551 | 24112 ft | 411 kts | 186° |
| 2026-04-29 12:59 | 53.88770 | -7.22603 | 24460 ft | 414 kts | 186° |
| 2026-04-29 12:59 | 53.86903 | -7.23304 | 24693 ft | 415 kts | 186° |
| 2026-04-29 13:00 | 53.84048 | -7.24380 | 25053 ft | 417 kts | 186° |
| 2026-04-29 13:00 | 53.81206 | -7.25455 | 25393 ft | 419 kts | 186° |
| 2026-04-29 13:00 | 53.78363 | -7.26532 | 25716 ft | 421 kts | 186° |
| 2026-04-29 13:00 | 53.75492 | -7.27618 | 26085 ft | 422 kts | 186° |
| 2026-04-29 13:01 | 53.72622 | -7.28701 | 26391 ft | 424 kts | 186° |
| 2026-04-29 13:01 | 53.69736 | -7.29788 | 26695 ft | 426 kts | 186° |
| 2026-04-29 13:01 | 53.66833 | -7.30882 | 26984 ft | 428 kts | 185° |
| 2026-04-29 13:01 | 53.63921 | -7.31981 | 27280 ft | 430 kts | 186° |
| 2026-04-29 13:02 | 53.61031 | -7.33066 | 27563 ft | 432 kts | 185° |
| 2026-04-29 13:02 | 53.58092 | -7.34164 | 27864 ft | 434 kts | 185° |
| 2026-04-29 13:02 | 53.55141 | -7.35263 | 28162 ft | 435 kts | 185° |
| 2026-04-29 13:02 | 53.52174 | -7.36366 | 28439 ft | 437 kts | 185° |
| 2026-04-29 13:03 | 53.49198 | -7.37474 | 28743 ft | 439 kts | 185° |
| 2026-04-29 13:03 | 53.46211 | -7.38585 | 29012 ft | 441 kts | 185° |
| 2026-04-29 13:03 | 53.43212 | -7.39697 | 29281 ft | 442 kts | 185° |
| 2026-04-29 13:03 | 53.40162 | -7.40825 | 29541 ft | 444 kts | 185° |
| 2026-04-29 13:04 | 53.37179 | -7.41931 | 29788 ft | 446 kts | 185° |
| 2026-04-29 13:04 | 53.34107 | -7.43070 | 30027 ft | 447 kts | 185° |
| 2026-04-29 13:04 | 53.31064 | -7.44195 | 30274 ft | 449 kts | 185° |
| 2026-04-29 13:04 | 53.28005 | -7.45325 | 30474 ft | 450 kts | 185° |
| 2026-04-29 13:05 | 53.24942 | -7.46454 | 30680 ft | 451 kts | 185° |
| 2026-04-29 13:05 | 53.21879 | -7.47581 | 30975 ft | 450 kts | 184° |
| 2026-04-29 13:05 | 53.18826 | -7.48701 | 31260 ft | 449 kts | 184° |
| 2026-04-29 13:05 | 53.15778 | -7.49819 | 31538 ft | 448 kts | 184° |
| 2026-04-29 13:06 | 53.12740 | -7.50929 | 31810 ft | 447 kts | 184° |
| 2026-04-29 13:06 | 53.09747 | -7.52020 | 32069 ft | 446 kts | 184° |
| 2026-04-29 13:06 | 53.06676 | -7.53135 | 32342 ft | 445 kts | 184° |
| 2026-04-29 13:06 | 53.03655 | -7.54230 | 32601 ft | 444 kts | 184° |
| 2026-04-29 13:07 | 53.00678 | -7.55312 | 32905 ft | 444 kts | 183° |
| 2026-04-29 13:07 | 52.97664 | -7.56411 | 33172 ft | 443 kts | 183° |
| 2026-04-29 13:07 | 52.94655 | -7.57510 | 33439 ft | 442 kts | 183° |
| 2026-04-29 13:07 | 52.91654 | -7.58604 | 33705 ft | 442 kts | 183° |
| 2026-04-29 13:08 | 52.88657 | -7.59689 | 33979 ft | 441 kts | 182° |
| 2026-04-29 13:08 | 52.85658 | -7.60771 | 34209 ft | 441 kts | 182° |
| 2026-04-29 13:08 | 52.82667 | -7.61848 | 34287 ft | 437 kts | 182° |
| 2026-04-29 13:09 | 52.76758 | -7.63977 | 34291 ft | 435 kts | 182° |
| 2026-04-29 13:09 | 52.70768 | -7.66107 | 34279 ft | 446 kts | 182° |
| 2026-04-29 13:10 | 52.64637 | -7.68287 | 34280 ft | 454 kts | 182° |
| 2026-04-29 13:10 | 52.58447 | -7.70517 | 34275 ft | 456 kts | 182° |
| 2026-04-29 13:11 | 52.52246 | -7.72752 | 34274 ft | 456 kts | 182° |
| 2026-04-29 13:11 | 52.46030 | -7.74949 | 34265 ft | 458 kts | 182° |
| 2026-04-29 13:12 | 52.39800 | -7.77150 | 34259 ft | 458 kts | 182° |
| 2026-04-29 13:12 | 52.33566 | -7.79358 | 34262 ft | 458 kts | 182° |
| 2026-04-29 13:13 | 52.27335 | -7.81535 | 34261 ft | 458 kts | 182° |
| 2026-04-29 13:13 | 52.21096 | -7.83716 | 34274 ft | 458 kts | 183° |
| 2026-04-29 13:14 | 52.14858 | -7.85908 | 34273 ft | 458 kts | 183° |
| 2026-04-29 13:14 | 52.08622 | -7.88085 | 34275 ft | 458 kts | 183° |
| 2026-04-29 13:15 | 52.02377 | -7.90251 | 34249 ft | 459 kts | 183° |
| 2026-04-29 13:15 | 51.96111 | -7.92425 | 34253 ft | 461 kts | 184° |
| 2026-04-29 13:16 | 51.89833 | -7.94604 | 34225 ft | 461 kts | 184° |
| 2026-04-29 13:16 | 51.83552 | -7.96770 | 34231 ft | 462 kts | 184° |
| 2026-04-29 13:17 | 51.77267 | -7.98930 | 34257 ft | 462 kts | 184° |
| 2026-04-29 13:17 | 51.70988 | -8.01087 | 34245 ft | 461 kts | 185° |
| 2026-04-29 13:18 | 51.64719 | -8.03224 | 34244 ft | 460 kts | 185° |
| 2026-04-29 13:18 | 51.58460 | -8.05356 | 34236 ft | 459 kts | 185° |
| 2026-04-29 13:19 | 51.52205 | -8.07481 | 34254 ft | 459 kts | 186° |
| 2026-04-29 13:19 | 51.45968 | -8.09591 | 34218 ft | 457 kts | 186° |
| 2026-04-29 13:20 | 51.39742 | -8.11700 | 34208 ft | 457 kts | 186° |
| 2026-04-29 13:20 | 51.33517 | -8.13801 | 34203 ft | 457 kts | 186° |
| 2026-04-29 13:21 | 51.27287 | -8.15898 | 34221 ft | 458 kts | 186° |
| 2026-04-29 13:21 | 51.21049 | -8.17990 | 34201 ft | 458 kts | 186° |
| 2026-04-29 13:22 | 51.14813 | -8.20074 | 34195 ft | 458 kts | 186° |
| 2026-04-29 13:22 | 51.08568 | -8.22152 | 34188 ft | 459 kts | 186° |
| 2026-04-29 13:23 | 51.02320 | -8.24218 | 34208 ft | 457 kts | 185° |
| 2026-04-29 13:23 | 50.96074 | -8.24594 | 34202 ft | 446 kts | 171° |
| 2026-04-29 13:24 | 50.89887 | -8.23901 | 34196 ft | 445 kts | 171° |
| 2026-04-29 13:24 | 50.83703 | -8.23239 | 34183 ft | 445 kts | 171° |
| 2026-04-29 13:25 | 50.77521 | -8.22580 | 34181 ft | 445 kts | 171° |
| 2026-04-29 13:25 | 50.68260 | -8.21581 | 34168 ft | 445 kts | 171° |
| 2026-04-29 13:26 | 50.62076 | -8.20923 | 34158 ft | 445 kts | 171° |
| 2026-04-29 13:26 | 50.55941 | -8.20270 | 34170 ft | 444 kts | 171° |
| 2026-04-29 13:27 | 50.49780 | -8.19612 | 34168 ft | 444 kts | 171° |
| 2026-04-29 13:27 | 50.43577 | -8.18956 | 34147 ft | 443 kts | 171° |
| 2026-04-29 13:28 | 50.37425 | -8.18314 | 34138 ft | 443 kts | 171° |
| 2026-04-29 13:28 | 50.31317 | -8.17663 | 34140 ft | 443 kts | 172° |
| 2026-04-29 13:29 | 50.25168 | -8.17008 | 34133 ft | 443 kts | 172° |
| 2026-04-29 13:29 | 50.19013 | -8.16360 | 34123 ft | 443 kts | 172° |
| 2026-04-29 13:30 | 50.12860 | -8.15715 | 34128 ft | 443 kts | 172° |
| 2026-04-29 13:30 | 50.06705 | -8.15076 | 34120 ft | 444 kts | 172° |
| 2026-04-29 13:31 | 50.00543 | -8.14438 | 34111 ft | 444 kts | 172° |
| 2026-04-29 13:31 | 49.94382 | -8.13798 | 34099 ft | 444 kts | 172° |
| 2026-04-29 13:32 | 49.88219 | -8.13163 | 34110 ft | 444 kts | 173° |
| 2026-04-29 13:32 | 49.82062 | -8.12525 | 34098 ft | 443 kts | 173° |
| 2026-04-29 13:33 | 49.75910 | -8.11881 | 34088 ft | 443 kts | 173° |
| 2026-04-29 13:33 | 49.69763 | -8.11250 | 34087 ft | 443 kts | 173° |
| 2026-04-29 13:34 | 49.63623 | -8.10626 | 34096 ft | 441 kts | 173° |
| 2026-04-29 13:34 | 49.57502 | -8.10002 | 34098 ft | 440 kts | 173° |
| 2026-04-29 13:35 | 49.51379 | -8.09381 | 34078 ft | 441 kts | 173° |
| 2026-04-29 13:35 | 49.45246 | -8.08756 | 34066 ft | 442 kts | 173° |
| 2026-04-29 13:36 | 49.39114 | -8.08131 | 34052 ft | 441 kts | 173° |
| 2026-04-29 13:36 | 49.32988 | -8.07511 | 34047 ft | 441 kts | 173° |
| 2026-04-29 13:37 | 49.26863 | -8.06888 | 34046 ft | 441 kts | 173° |
| 2026-04-29 13:37 | 49.20744 | -8.06270 | 34046 ft | 441 kts | 173° |
| 2026-04-29 13:38 | 49.14622 | -8.05658 | 34029 ft | 441 kts | 173° |
| 2026-04-29 13:38 | 49.08548 | -8.05044 | 34023 ft | 441 kts | 173° |
| 2026-04-29 13:39 | 49.02386 | -8.04422 | 34013 ft | 441 kts | 173° |
| 2026-04-29 13:39 | 48.96273 | -8.03822 | 34013 ft | 440 kts | 174° |
| 2026-04-29 13:40 | 48.90207 | -8.03214 | 34014 ft | 440 kts | 174° |
| 2026-04-29 13:40 | 48.84099 | -8.02604 | 34004 ft | 439 kts | 174° |
| 2026-04-29 13:41 | 48.77999 | -8.02007 | 34008 ft | 439 kts | 174° |
| 2026-04-29 13:41 | 48.71910 | -8.01405 | 34005 ft | 438 kts | 174° |
| 2026-04-29 13:42 | 48.65828 | -8.00801 | 34003 ft | 438 kts | 174° |
| 2026-04-29 13:42 | 48.59765 | -8.00198 | 34000 ft | 437 kts | 174° |
| 2026-04-29 13:43 | 48.53768 | -7.98786 | 33992 ft | 435 kts | 167° |
| 2026-04-29 13:43 | 48.48836 | -7.97247 | 33990 ft | 435 kts | 167° |
| 2026-04-29 13:44 | 48.42904 | -7.95403 | 33981 ft | 435 kts | 167° |
| 2026-04-29 13:44 | 48.36975 | -7.93565 | 33986 ft | 435 kts | 167° |
| 2026-04-29 13:45 | 48.31042 | -7.91742 | 33984 ft | 435 kts | 167° |
| 2026-04-29 13:45 | 48.25107 | -7.89919 | 33970 ft | 435 kts | 167° |
| 2026-04-29 13:46 | 48.19183 | -7.88109 | 33962 ft | 434 kts | 167° |
| 2026-04-29 13:46 | 48.13263 | -7.86292 | 33959 ft | 434 kts | 167° |
| 2026-04-29 13:47 | 48.07348 | -7.84489 | 33954 ft | 434 kts | 167° |
| 2026-04-29 13:47 | 48.01410 | -7.82689 | 33953 ft | 434 kts | 167° |
| 2026-04-29 13:48 | 47.95490 | -7.80887 | 33956 ft | 434 kts | 168° |
| 2026-04-29 13:48 | 47.89568 | -7.79086 | 33947 ft | 434 kts | 168° |
| 2026-04-29 13:49 | 47.83642 | -7.77288 | 33939 ft | 435 kts | 168° |
| 2026-04-29 13:49 | 47.77714 | -7.75502 | 33929 ft | 435 kts | 168° |
| 2026-04-29 13:50 | 47.71789 | -7.73717 | 33928 ft | 435 kts | 168° |
| 2026-04-29 13:50 | 47.65858 | -7.71932 | 33925 ft | 435 kts | 168° |
| 2026-04-29 13:51 | 47.59927 | -7.70153 | 33921 ft | 435 kts | 168° |
| 2026-04-29 13:51 | 47.53995 | -7.68372 | 33913 ft | 435 kts | 169° |
| 2026-04-29 13:52 | 47.48106 | -7.66622 | 33919 ft | 434 kts | 169° |
| 2026-04-29 13:52 | 47.42144 | -7.64846 | 33919 ft | 434 kts | 169° |
| 2026-04-29 13:53 | 47.36221 | -7.63091 | 33912 ft | 434 kts | 169° |
| 2026-04-29 13:53 | 47.30346 | -7.61354 | 33912 ft | 433 kts | 169° |
| 2026-04-29 13:54 | 47.24432 | -7.59602 | 33910 ft | 433 kts | 169° |
| 2026-04-29 13:54 | 47.18519 | -7.57846 | 33907 ft | 434 kts | 169° |
| 2026-04-29 13:55 | 47.12607 | -7.56106 | 33898 ft | 433 kts | 170° |
| 2026-04-29 13:55 | 47.06701 | -7.54371 | 33909 ft | 432 kts | 170° |
| 2026-04-29 13:56 | 47.00802 | -7.52645 | 33908 ft | 432 kts | 171° |
| 2026-04-29 13:56 | 46.94908 | -7.50921 | 33913 ft | 432 kts | 171° |
| 2026-04-29 13:57 | 46.89022 | -7.49206 | 33895 ft | 431 kts | 171° |
| 2026-04-29 13:57 | 46.83140 | -7.47509 | 33904 ft | 430 kts | 171° |
| 2026-04-29 13:58 | 46.77266 | -7.45814 | 33904 ft | 430 kts | 171° |
| 2026-04-29 13:58 | 46.71395 | -7.44130 | 33890 ft | 430 kts | 172° |
| 2026-04-29 13:59 | 46.65527 | -7.42437 | 33894 ft | 430 kts | 172° |
| 2026-04-29 13:59 | 46.59672 | -7.40755 | 33896 ft | 429 kts | 172° |
| 2026-04-29 14:00 | 46.53801 | -7.39084 | 33898 ft | 429 kts | 172° |
| 2026-04-29 14:00 | 46.47939 | -7.37418 | 33895 ft | 429 kts | 172° |
| 2026-04-29 14:01 | 46.42082 | -7.35758 | 33896 ft | 429 kts | 172° |
| 2026-04-29 14:01 | 46.36223 | -7.34096 | 33891 ft | 429 kts | 172° |
| 2026-04-29 14:02 | 46.30366 | -7.32431 | 33861 ft | 429 kts | 172° |
| 2026-04-29 14:02 | 46.24626 | -7.30798 | 33864 ft | 429 kts | 172° |
| 2026-04-29 14:03 | 46.18666 | -7.29114 | 33871 ft | 429 kts | 173° |
| 2026-04-29 14:03 | 46.12805 | -7.27469 | 33839 ft | 429 kts | 173° |
| 2026-04-29 14:04 | 46.06940 | -7.25830 | 33848 ft | 430 kts | 173° |
| 2026-04-29 14:04 | 46.01068 | -7.24187 | 33852 ft | 430 kts | 173° |
| 2026-04-29 14:05 | 45.95197 | -7.22536 | 33859 ft | 430 kts | 173° |
| 2026-04-29 14:05 | 45.89321 | -7.20896 | 33847 ft | 430 kts | 173° |
| 2026-04-29 14:06 | 45.83436 | -7.19261 | 33849 ft | 431 kts | 173° |
| 2026-04-29 14:06 | 45.77549 | -7.17631 | 33849 ft | 431 kts | 173° |
| 2026-04-29 14:07 | 45.71663 | -7.15996 | 33834 ft | 431 kts | 173° |
| 2026-04-29 14:07 | 45.65765 | -7.14363 | 33837 ft | 432 kts | 173° |
| 2026-04-29 14:08 | 45.59866 | -7.12728 | 33842 ft | 432 kts | 173° |
| 2026-04-29 14:08 | 45.54007 | -7.11119 | 33823 ft | 432 kts | 173° |
| 2026-04-29 14:09 | 45.48109 | -7.09506 | 33848 ft | 431 kts | 173° |
| 2026-04-29 14:09 | 45.42221 | -7.07889 | 33856 ft | 431 kts | 173° |
| 2026-04-29 14:10 | 45.36338 | -7.06275 | 33856 ft | 430 kts | 173° |
| 2026-04-29 14:10 | 45.30465 | -7.04667 | 33853 ft | 430 kts | 173° |
| 2026-04-29 14:11 | 45.24598 | -7.03063 | 33859 ft | 429 kts | 173° |
| 2026-04-29 14:11 | 45.18739 | -7.01471 | 33853 ft | 428 kts | 173° |
| 2026-04-29 14:12 | 45.12882 | -6.99883 | 33838 ft | 428 kts | 172° |
| 2026-04-29 14:12 | 45.07027 | -6.98303 | 33837 ft | 429 kts | 172° |
| 2026-04-29 14:13 | 45.01168 | -6.96722 | 33840 ft | 428 kts | 172° |
| 2026-04-29 14:13 | 44.95313 | -6.95148 | 33823 ft | 429 kts | 172° |
| 2026-04-29 14:14 | 44.89453 | -6.93563 | 33828 ft | 429 kts | 172° |
| 2026-04-29 14:14 | 44.83568 | -6.92682 | 33827 ft | 423 kts | 185° |
| 2026-04-29 14:15 | 44.77843 | -6.94273 | 33811 ft | 420 kts | 197° |
| 2026-04-29 14:15 | 44.72232 | -6.96557 | 33817 ft | 421 kts | 197° |
| 2026-04-29 14:16 | 44.66603 | -6.98820 | 33821 ft | 421 kts | 197° |
| 2026-04-29 14:16 | 44.60968 | -7.01072 | 33824 ft | 421 kts | 197° |
| 2026-04-29 14:17 | 44.55316 | -7.03339 | 33827 ft | 421 kts | 197° |
| 2026-04-29 14:17 | 44.49681 | -7.05600 | 33829 ft | 421 kts | 197° |
| 2026-04-29 14:18 | 44.44043 | -7.07858 | 33831 ft | 421 kts | 197° |
| 2026-04-29 14:18 | 44.38406 | -7.10117 | 33810 ft | 421 kts | 197° |
| 2026-04-29 14:19 | 44.32771 | -7.12355 | 33818 ft | 421 kts | 197° |
| 2026-04-29 14:19 | 44.27132 | -7.14593 | 33823 ft | 421 kts | 197° |
| 2026-04-29 14:20 | 44.21497 | -7.16830 | 33823 ft | 421 kts | 197° |
| 2026-04-29 14:20 | 44.15899 | -7.19049 | 33820 ft | 421 kts | 196° |
| 2026-04-29 14:21 | 44.10259 | -7.21279 | 33823 ft | 421 kts | 196° |
| 2026-04-29 14:21 | 44.04614 | -7.23500 | 33816 ft | 423 kts | 196° |
| 2026-04-29 14:22 | 43.98941 | -7.25726 | 33792 ft | 424 kts | 196° |
| 2026-04-29 14:22 | 43.93261 | -7.27958 | 33804 ft | 424 kts | 196° |
| 2026-04-29 14:23 | 43.87578 | -7.30189 | 33808 ft | 425 kts | 196° |
| 2026-04-29 14:23 | 43.81889 | -7.32424 | 33811 ft | 425 kts | 196° |
| 2026-04-29 14:24 | 43.76200 | -7.34645 | 33803 ft | 425 kts | 196° |
| 2026-04-29 14:24 | 43.70509 | -7.36854 | 33804 ft | 425 kts | 196° |
| 2026-04-29 14:25 | 43.64824 | -7.39072 | 33805 ft | 425 kts | 196° |
| 2026-04-29 14:25 | 43.59139 | -7.41285 | 33808 ft | 424 kts | 196° |
| 2026-04-29 14:26 | 43.53461 | -7.43482 | 33815 ft | 423 kts | 195° |
| 2026-04-29 14:26 | 43.47796 | -7.45674 | 33809 ft | 422 kts | 195° |
| 2026-04-29 14:27 | 43.42141 | -7.47861 | 33802 ft | 422 kts | 195° |
| 2026-04-29 14:28 | 43.33662 | -7.51108 | 33801 ft | 421 kts | 195° |
| 2026-04-29 14:28 | 43.28026 | -7.53277 | 33799 ft | 421 kts | 195° |
| 2026-04-29 14:29 | 43.22427 | -7.55428 | 33800 ft | 420 kts | 195° |
| 2026-04-29 14:29 | 43.16795 | -7.57585 | 33788 ft | 420 kts | 194° |
| 2026-04-29 14:30 | 43.11164 | -7.59731 | 33784 ft | 421 kts | 194° |
| 2026-04-29 14:30 | 43.06429 | -7.61532 | 33779 ft | 421 kts | 194° |
| 2026-04-29 14:31 | 43.00778 | -7.63677 | 33783 ft | 422 kts | 194° |
| 2026-04-29 14:31 | 42.95118 | -7.65832 | 33775 ft | 422 kts | 194° |
| 2026-04-29 14:32 | 42.89447 | -7.67988 | 33780 ft | 424 kts | 194° |
| 2026-04-29 14:32 | 42.83759 | -7.70138 | 33779 ft | 424 kts | 194° |
| 2026-04-29 14:33 | 42.78064 | -7.72282 | 33773 ft | 425 kts | 194° |
| 2026-04-29 14:33 | 42.72360 | -7.74428 | 33757 ft | 427 kts | 194° |
| 2026-04-29 14:34 | 42.66616 | -7.76581 | 33769 ft | 429 kts | 194° |
| 2026-04-29 14:34 | 42.60844 | -7.78754 | 33771 ft | 431 kts | 194° |
| 2026-04-29 14:35 | 42.55061 | -7.80932 | 33774 ft | 432 kts | 194° |
| 2026-04-29 14:35 | 42.49296 | -7.83088 | 33771 ft | 433 kts | 194° |
| 2026-04-29 14:36 | 42.43452 | -7.85255 | 33770 ft | 433 kts | 194° |
| 2026-04-29 14:36 | 42.37678 | -7.87401 | 33777 ft | 433 kts | 194° |
| 2026-04-29 14:37 | 42.31867 | -7.89578 | 33774 ft | 434 kts | 194° |
| 2026-04-29 14:37 | 42.26029 | -7.91741 | 33772 ft | 436 kts | 194° |
| 2026-04-29 14:38 | 42.20174 | -7.93902 | 33768 ft | 437 kts | 194° |
| 2026-04-29 14:38 | 42.14309 | -7.96080 | 33778 ft | 437 kts | 194° |
| 2026-04-29 14:39 | 42.08431 | -7.98258 | 33781 ft | 439 kts | 194° |
| 2026-04-29 14:39 | 42.02526 | -8.00436 | 33782 ft | 441 kts | 194° |
| 2026-04-29 14:40 | 41.96600 | -8.02611 | 33789 ft | 442 kts | 194° |
| 2026-04-29 14:40 | 41.90669 | -8.04780 | 33808 ft | 442 kts | 195° |
| 2026-04-29 14:41 | 41.84731 | -8.06947 | 33817 ft | 442 kts | 194° |
| 2026-04-29 14:41 | 41.78753 | -8.08790 | 33820 ft | 441 kts | 189° |
| 2026-04-29 14:42 | 41.72718 | -8.10235 | 33814 ft | 441 kts | 189° |
| 2026-04-29 14:42 | 41.66679 | -8.11679 | 33818 ft | 440 kts | 189° |
| 2026-04-29 14:43 | 41.60646 | -8.13117 | 33825 ft | 440 kts | 189° |
| 2026-04-29 14:43 | 41.54610 | -8.14561 | 33823 ft | 440 kts | 189° |
| 2026-04-29 14:44 | 41.48577 | -8.16003 | 33810 ft | 440 kts | 189° |
| 2026-04-29 14:44 | 41.42543 | -8.17431 | 33813 ft | 441 kts | 190° |
| 2026-04-29 14:45 | 41.36505 | -8.18864 | 33819 ft | 441 kts | 190° |
| 2026-04-29 14:45 | 41.30464 | -8.20302 | 33823 ft | 441 kts | 190° |
| 2026-04-29 14:46 | 41.24422 | -8.21729 | 33811 ft | 441 kts | 191° |
| 2026-04-29 14:46 | 41.18374 | -8.23150 | 33815 ft | 442 kts | 191° |
| 2026-04-29 14:47 | 41.12371 | -8.24567 | 33822 ft | 441 kts | 191° |
| 2026-04-29 14:47 | 41.06326 | -8.25987 | 33824 ft | 441 kts | 191° |
| 2026-04-29 14:48 | 41.00280 | -8.27394 | 33818 ft | 441 kts | 191° |
| 2026-04-29 14:48 | 40.94238 | -8.28808 | 33818 ft | 441 kts | 191° |
| 2026-04-29 14:49 | 40.88197 | -8.30235 | 33826 ft | 441 kts | 191° |
| 2026-04-29 14:49 | 40.82158 | -8.31646 | 33824 ft | 441 kts | 191° |
| 2026-04-29 14:50 | 40.76115 | -8.33048 | 33835 ft | 440 kts | 191° |
| 2026-04-29 14:50 | 40.70081 | -8.34448 | 33841 ft | 440 kts | 191° |
| 2026-04-29 14:51 | 40.64036 | -8.35852 | 33837 ft | 442 kts | 191° |
| 2026-04-29 14:51 | 40.58021 | -8.37247 | 33824 ft | 442 kts | 192° |
| 2026-04-29 14:52 | 40.51955 | -8.38645 | 33826 ft | 443 kts | 192° |
| 2026-04-29 14:52 | 40.45888 | -8.40045 | 33833 ft | 443 kts | 192° |
| 2026-04-29 14:53 | 40.39818 | -8.41445 | 33834 ft | 443 kts | 192° |
| 2026-04-29 14:53 | 40.33747 | -8.42847 | 33831 ft | 443 kts | 192° |
| 2026-04-29 14:54 | 40.27676 | -8.44238 | 33831 ft | 443 kts | 192° |
| 2026-04-29 14:54 | 40.21602 | -8.45631 | 33838 ft | 443 kts | 192° |
| 2026-04-29 14:55 | 40.15528 | -8.47026 | 33835 ft | 443 kts | 192° |
| 2026-04-29 14:55 | 40.09449 | -8.48407 | 33837 ft | 443 kts | 192° |
| 2026-04-29 14:56 | 40.03371 | -8.49781 | 33845 ft | 443 kts | 192° |
| 2026-04-29 14:56 | 39.97295 | -8.51169 | 33842 ft | 443 kts | 192° |
| 2026-04-29 14:57 | 39.91222 | -8.52547 | 33819 ft | 443 kts | 193° |
| 2026-04-29 14:57 | 39.85133 | -8.53925 | 33824 ft | 444 kts | 193° |
| 2026-04-29 14:58 | 39.79044 | -8.55305 | 33827 ft | 444 kts | 193° |
| 2026-04-29 14:58 | 39.72951 | -8.56684 | 33831 ft | 445 kts | 193° |
| 2026-04-29 14:59 | 39.66852 | -8.58060 | 33826 ft | 445 kts | 193° |
| 2026-04-29 14:59 | 39.60752 | -8.59425 | 33834 ft | 445 kts | 194° |
| 2026-04-29 15:00 | 39.54649 | -8.60792 | 33839 ft | 445 kts | 194° |
| 2026-04-29 15:00 | 39.48551 | -8.62163 | 33823 ft | 445 kts | 194° |
| 2026-04-29 15:01 | 39.42462 | -8.63526 | 33846 ft | 443 kts | 194° |
| 2026-04-29 15:01 | 39.36386 | -8.64880 | 33860 ft | 443 kts | 194° |
| 2026-04-29 15:02 | 39.30322 | -8.66230 | 33866 ft | 442 kts | 194° |
| 2026-04-29 15:02 | 39.24262 | -8.67580 | 33851 ft | 441 kts | 194° |
| 2026-04-29 15:03 | 39.18225 | -8.68924 | 33873 ft | 440 kts | 194° |
| 2026-04-29 15:03 | 39.12196 | -8.70261 | 33875 ft | 439 kts | 194° |
| 2026-04-29 15:04 | 39.06178 | -8.71595 | 33881 ft | 438 kts | 194° |
| 2026-04-29 15:04 | 39.00160 | -8.72920 | 33837 ft | 439 kts | 195° |
| 2026-04-29 15:05 | 38.94131 | -8.74249 | 33855 ft | 440 kts | 195° |
| 2026-04-29 15:05 | 38.88101 | -8.75582 | 33864 ft | 440 kts | 195° |
| 2026-04-29 15:06 | 38.82066 | -8.76914 | 33868 ft | 440 kts | 195° |
| 2026-04-29 15:06 | 38.76042 | -8.78235 | 33868 ft | 438 kts | 197° |
| 2026-04-29 15:07 | 38.70028 | -8.79543 | 33891 ft | 437 kts | 197° |
| 2026-04-29 15:07 | 38.64076 | -8.80847 | 33898 ft | 437 kts | 197° |
| 2026-04-29 15:08 | 38.58090 | -8.82160 | 33900 ft | 436 kts | 197° |
| 2026-04-29 15:08 | 38.52111 | -8.83463 | 33877 ft | 435 kts | 198° |
| 2026-04-29 15:09 | 38.46145 | -8.84761 | 33895 ft | 435 kts | 198° |
| 2026-04-29 15:09 | 38.40183 | -8.86053 | 33902 ft | 434 kts | 198° |
| 2026-04-29 15:10 | 38.34232 | -8.87345 | 33903 ft | 434 kts | 198° |
| 2026-04-29 15:10 | 38.28279 | -8.88633 | 33869 ft | 433 kts | 197° |
| 2026-04-29 15:11 | 38.22333 | -8.89923 | 33878 ft | 433 kts | 197° |
| 2026-04-29 15:11 | 38.16394 | -8.91207 | 33886 ft | 433 kts | 197° |
| 2026-04-29 15:12 | 38.10451 | -8.92480 | 33907 ft | 433 kts | 197° |
| 2026-04-29 15:12 | 38.04512 | -8.93756 | 33908 ft | 433 kts | 197° |
| 2026-04-29 15:13 | 37.98573 | -8.95036 | 33904 ft | 433 kts | 197° |
| 2026-04-29 15:13 | 37.92633 | -8.96312 | 33909 ft | 433 kts | 197° |
| 2026-04-29 15:14 | 37.86692 | -8.97580 | 33916 ft | 433 kts | 197° |
| 2026-04-29 15:14 | 37.80749 | -8.98847 | 33885 ft | 433 kts | 197° |
| 2026-04-29 15:15 | 37.74804 | -9.00114 | 33892 ft | 433 kts | 197° |
| 2026-04-29 15:15 | 37.68894 | -9.01379 | 33898 ft | 434 kts | 197° |
| 2026-04-29 15:16 | 37.63906 | -9.02441 | 33903 ft | 434 kts | 197° |
| 2026-04-29 15:16 | 37.56982 | -9.03909 | 33899 ft | 435 kts | 196° |
| 2026-04-29 15:17 | 37.51014 | -9.05180 | 33910 ft | 435 kts | 196° |
| 2026-04-29 15:17 | 37.46013 | -9.06235 | 33914 ft | 435 kts | 196° |
| 2026-04-29 15:18 | 37.40041 | -9.07493 | 33920 ft | 435 kts | 196° |
| 2026-04-29 15:18 | 37.34071 | -9.08753 | 33890 ft | 435 kts | 196° |
| 2026-04-29 15:19 | 37.28096 | -9.10014 | 33911 ft | 436 kts | 196° |
| 2026-04-29 15:19 | 37.22102 | -9.11271 | 33911 ft | 437 kts | 196° |
| 2026-04-29 15:20 | 37.16102 | -9.12534 | 33917 ft | 438 kts | 196° |
| 2026-04-29 15:20 | 37.10094 | -9.13801 | 33916 ft | 438 kts | 195° |
| 2026-04-29 15:21 | 37.04064 | -9.15067 | 33926 ft | 440 kts | 195° |
| 2026-04-29 15:21 | 36.98025 | -9.16324 | 33933 ft | 440 kts | 195° |
| 2026-04-29 15:22 | 36.91994 | -9.17585 | 33928 ft | 440 kts | 195° |
| 2026-04-29 15:22 | 36.85956 | -9.18841 | 33906 ft | 440 kts | 195° |
| 2026-04-29 15:23 | 36.79912 | -9.20089 | 33914 ft | 440 kts | 195° |
| 2026-04-29 15:23 | 36.73905 | -9.21339 | 33924 ft | 441 kts | 195° |
| 2026-04-29 15:24 | 36.67858 | -9.22604 | 33928 ft | 441 kts | 195° |
| 2026-04-29 15:24 | 36.61805 | -9.23854 | 33905 ft | 441 kts | 195° |
| 2026-04-29 15:25 | 36.55745 | -9.25105 | 33919 ft | 442 kts | 195° |
| 2026-04-29 15:25 | 36.49681 | -9.26360 | 33926 ft | 442 kts | 195° |
| 2026-04-29 15:26 | 36.43615 | -9.27611 | 33933 ft | 442 kts | 195° |
| 2026-04-29 15:26 | 36.37541 | -9.28856 | 33921 ft | 442 kts | 195° |
| 2026-04-29 15:27 | 36.31476 | -9.30101 | 33937 ft | 442 kts | 195° |
| 2026-04-29 15:27 | 36.25409 | -9.31341 | 33945 ft | 442 kts | 195° |
| 2026-04-29 15:28 | 36.19348 | -9.32577 | 33946 ft | 441 kts | 195° |
| 2026-04-29 15:28 | 36.13290 | -9.33819 | 33927 ft | 441 kts | 195° |
| 2026-04-29 15:29 | 36.07227 | -9.35057 | 33936 ft | 441 kts | 195° |
| 2026-04-29 15:30 | 35.95264 | -9.38077 | 33941 ft | 432 kts | 207° |
| 2026-04-29 15:30 | 35.89861 | -9.41232 | 33944 ft | 430 kts | 210° |
| 2026-04-29 15:31 | 35.84463 | -9.44410 | 33928 ft | 430 kts | 210° |
| 2026-04-29 15:31 | 35.79043 | -9.47584 | 33928 ft | 432 kts | 210° |
| 2026-04-29 15:32 | 35.73609 | -9.50754 | 33931 ft | 433 kts | 210° |
| 2026-04-29 15:32 | 35.68167 | -9.53937 | 33934 ft | 433 kts | 210° |
| 2026-04-29 15:33 | 35.62723 | -9.57127 | 33940 ft | 434 kts | 210° |
| 2026-04-29 15:33 | 35.57264 | -9.60311 | 33940 ft | 434 kts | 210° |
| 2026-04-29 15:34 | 35.51803 | -9.63491 | 33943 ft | 434 kts | 210° |
| 2026-04-29 15:34 | 35.46344 | -9.66671 | 33951 ft | 434 kts | 210° |
| 2026-04-29 15:35 | 35.40923 | -9.69831 | 33953 ft | 434 kts | 210° |
| 2026-04-29 15:35 | 35.35459 | -9.73002 | 33941 ft | 435 kts | 210° |
| 2026-04-29 15:36 | 35.29992 | -9.76168 | 33941 ft | 435 kts | 210° |
| 2026-04-29 15:36 | 35.24522 | -9.79336 | 33950 ft | 435 kts | 210° |
| 2026-04-29 15:37 | 35.19041 | -9.82500 | 33954 ft | 436 kts | 210° |
| 2026-04-29 15:37 | 35.13557 | -9.85668 | 33954 ft | 436 kts | 210° |
| 2026-04-29 15:38 | 35.08063 | -9.88825 | 33938 ft | 437 kts | 209° |
| 2026-04-29 15:38 | 35.02560 | -9.91987 | 33946 ft | 437 kts | 209° |
| 2026-04-29 15:39 | 34.97056 | -9.95154 | 33949 ft | 438 kts | 209° |
| 2026-04-29 15:39 | 34.91541 | -9.98318 | 33957 ft | 438 kts | 209° |
| 2026-04-29 15:40 | 34.86022 | -10.01486 | 33970 ft | 438 kts | 209° |
| 2026-04-29 15:40 | 34.80500 | -10.04644 | 33954 ft | 439 kts | 208° |
| 2026-04-29 15:41 | 34.74964 | -10.07800 | 33958 ft | 440 kts | 209° |
| 2026-04-29 15:41 | 34.69424 | -10.10956 | 33961 ft | 440 kts | 209° |
| 2026-04-29 15:42 | 34.63881 | -10.14113 | 33976 ft | 440 kts | 208° |
| 2026-04-29 15:42 | 34.58335 | -10.17259 | 33981 ft | 440 kts | 208° |
| 2026-04-29 15:43 | 34.52793 | -10.20402 | 33972 ft | 440 kts | 208° |
| 2026-04-29 15:43 | 34.47244 | -10.23556 | 33964 ft | 441 kts | 208° |
| 2026-04-29 15:44 | 34.41685 | -10.26702 | 33977 ft | 441 kts | 208° |
| 2026-04-29 15:44 | 34.36164 | -10.29827 | 33979 ft | 441 kts | 208° |
| 2026-04-29 15:45 | 34.30568 | -10.32980 | 33980 ft | 441 kts | 208° |
| 2026-04-29 15:45 | 34.25041 | -10.36092 | 33960 ft | 441 kts | 208° |
| 2026-04-29 15:46 | 34.19476 | -10.39224 | 33974 ft | 441 kts | 208° |
| 2026-04-29 15:46 | 34.13911 | -10.42351 | 33976 ft | 441 kts | 208° |
| 2026-04-29 15:47 | 34.08343 | -10.45472 | 33979 ft | 441 kts | 208° |
| 2026-04-29 15:47 | 34.02775 | -10.48589 | 33966 ft | 441 kts | 208° |
| 2026-04-29 15:48 | 33.97207 | -10.51711 | 33961 ft | 441 kts | 208° |
| 2026-04-29 15:48 | 33.91633 | -10.54823 | 33967 ft | 442 kts | 208° |
| 2026-04-29 15:49 | 33.86061 | -10.57925 | 33963 ft | 442 kts | 208° |
| 2026-04-29 15:49 | 33.80515 | -10.61015 | 33961 ft | 442 kts | 208° |
| 2026-04-29 15:50 | 33.74927 | -10.64132 | 33953 ft | 443 kts | 208° |
| 2026-04-29 15:50 | 33.69331 | -10.67245 | 33958 ft | 443 kts | 207° |
| 2026-04-29 15:51 | 33.63721 | -10.70346 | 33961 ft | 444 kts | 207° |
| 2026-04-29 15:51 | 33.58106 | -10.73439 | 33964 ft | 444 kts | 207° |
| 2026-04-29 15:52 | 33.52499 | -10.76539 | 33967 ft | 444 kts | 208° |
| 2026-04-29 15:52 | 33.46890 | -10.79649 | 33956 ft | 444 kts | 207° |
| 2026-04-29 15:53 | 33.41273 | -10.82740 | 33964 ft | 445 kts | 207° |
| 2026-04-29 15:53 | 33.35649 | -10.85832 | 33967 ft | 445 kts | 207° |
| 2026-04-29 15:54 | 33.30031 | -10.88937 | 33966 ft | 445 kts | 207° |
| 2026-04-29 15:54 | 33.24404 | -10.92025 | 33970 ft | 445 kts | 207° |
| 2026-04-29 15:55 | 33.18779 | -10.95110 | 33956 ft | 445 kts | 207° |
| 2026-04-29 15:55 | 33.13154 | -10.98194 | 33960 ft | 445 kts | 207° |
| 2026-04-29 15:56 | 33.07520 | -11.01264 | 33969 ft | 445 kts | 207° |
| 2026-04-29 15:56 | 33.01916 | -11.04311 | 33977 ft | 445 kts | 207° |
| 2026-04-29 15:57 | 32.96284 | -11.07381 | 33976 ft | 445 kts | 207° |
| 2026-04-29 15:57 | 32.90648 | -11.10460 | 33977 ft | 445 kts | 207° |
| 2026-04-29 15:58 | 32.85011 | -11.13525 | 33978 ft | 446 kts | 207° |
| 2026-04-29 15:58 | 32.79369 | -11.16583 | 33978 ft | 446 kts | 207° |
| 2026-04-29 15:59 | 32.73725 | -11.19636 | 33979 ft | 446 kts | 207° |
| 2026-04-29 15:59 | 32.68082 | -11.22688 | 33980 ft | 446 kts | 207° |
| 2026-04-29 16:00 | 32.62441 | -11.25735 | 33970 ft | 445 kts | 207° |
| 2026-04-29 16:00 | 32.56799 | -11.28777 | 33979 ft | 445 kts | 207° |
| 2026-04-29 16:01 | 32.51169 | -11.31821 | 33991 ft | 445 kts | 207° |
| 2026-04-29 16:01 | 32.45546 | -11.34848 | 33997 ft | 443 kts | 207° |
| 2026-04-29 16:02 | 32.39932 | -11.37871 | 34000 ft | 443 kts | 207° |
| 2026-04-29 16:02 | 32.34327 | -11.40878 | 33993 ft | 442 kts | 207° |
| 2026-04-29 16:03 | 32.28737 | -11.43885 | 33996 ft | 441 kts | 207° |
| 2026-04-29 16:03 | 32.23146 | -11.46874 | 33996 ft | 441 kts | 207° |
| 2026-04-29 16:04 | 32.17561 | -11.49852 | 33995 ft | 440 kts | 207° |
| 2026-04-29 16:04 | 32.12920 | -11.52335 | 33995 ft | 440 kts | 207° |
| 2026-04-29 16:05 | 32.06438 | -11.55800 | 33977 ft | 440 kts | 207° |
| 2026-04-29 16:05 | 32.00862 | -11.58760 | 33988 ft | 439 kts | 207° |
| 2026-04-29 16:06 | 31.95299 | -11.61720 | 33994 ft | 439 kts | 207° |
| 2026-04-29 16:06 | 31.90630 | -11.64197 | 33994 ft | 439 kts | 207° |
| 2026-04-29 16:07 | 31.85060 | -11.67148 | 33993 ft | 439 kts | 207° |
| 2026-04-29 16:07 | 31.79492 | -11.70095 | 33980 ft | 439 kts | 207° |
| 2026-04-29 16:08 | 31.73975 | -11.73024 | 33988 ft | 438 kts | 207° |
| 2026-04-29 16:08 | 31.68416 | -11.75964 | 33994 ft | 438 kts | 207° |
| 2026-04-29 16:09 | 31.62858 | -11.78896 | 33995 ft | 438 kts | 207° |
| 2026-04-29 16:09 | 31.57299 | -11.81821 | 33995 ft | 438 kts | 207° |
| 2026-04-29 16:10 | 31.51740 | -11.84741 | 33982 ft | 438 kts | 207° |
| 2026-04-29 16:10 | 31.46189 | -11.87655 | 33995 ft | 437 kts | 207° |
| 2026-04-29 16:11 | 31.40649 | -11.90568 | 33999 ft | 436 kts | 207° |
| 2026-04-29 16:11 | 31.35114 | -11.93473 | 34000 ft | 436 kts | 207° |
| 2026-04-29 16:12 | 31.29623 | -11.96354 | 33999 ft | 436 kts | 207° |
| 2026-04-29 16:12 | 31.24091 | -11.99244 | 33998 ft | 435 kts | 207° |
| 2026-04-29 16:13 | 31.18568 | -12.02124 | 34012 ft | 434 kts | 207° |
| 2026-04-29 16:13 | 31.13065 | -12.04993 | 34012 ft | 433 kts | 206° |
| 2026-04-29 16:14 | 31.07581 | -12.07853 | 34007 ft | 432 kts | 206° |
| 2026-04-29 16:14 | 31.02093 | -12.10706 | 34004 ft | 431 kts | 206° |
| 2026-04-29 16:15 | 30.96621 | -12.13547 | 34005 ft | 431 kts | 206° |
| 2026-04-29 16:15 | 30.91146 | -12.16386 | 33992 ft | 430 kts | 206° |
| 2026-04-29 16:16 | 30.85675 | -12.19222 | 33999 ft | 430 kts | 206° |
| 2026-04-29 16:16 | 30.80204 | -12.22052 | 34000 ft | 430 kts | 206° |
| 2026-04-29 16:17 | 30.74767 | -12.24855 | 33996 ft | 430 kts | 206° |
| 2026-04-29 16:17 | 30.69304 | -12.27683 | 33992 ft | 430 kts | 206° |
| 2026-04-29 16:18 | 30.63835 | -12.30509 | 33999 ft | 430 kts | 205° |
| 2026-04-29 16:18 | 30.58364 | -12.33320 | 33994 ft | 430 kts | 205° |
| 2026-04-29 16:19 | 30.52898 | -12.36133 | 34002 ft | 430 kts | 205° |
| 2026-04-29 16:19 | 30.47818 | -12.39700 | 34001 ft | 427 kts | 217° |
| 2026-04-29 16:20 | 30.43056 | -12.43811 | 34012 ft | 427 kts | 217° |
| 2026-04-29 16:20 | 30.38279 | -12.47903 | 33998 ft | 427 kts | 217° |
| 2026-04-29 16:21 | 30.33503 | -12.51994 | 33976 ft | 427 kts | 217° |
| 2026-04-29 16:21 | 30.28727 | -12.56075 | 33993 ft | 427 kts | 217° |
| 2026-04-29 16:22 | 30.23956 | -12.60159 | 34003 ft | 426 kts | 217° |
| 2026-04-29 16:22 | 30.19188 | -12.64241 | 33996 ft | 426 kts | 217° |
| 2026-04-29 16:23 | 30.14422 | -12.68308 | 34001 ft | 426 kts | 217° |
| 2026-04-29 16:23 | 30.09814 | -12.72529 | 34007 ft | 425 kts | 226° |
| 2026-04-29 16:24 | 30.05859 | -12.77611 | 34019 ft | 425 kts | 228° |
| 2026-04-29 16:24 | 30.01910 | -12.82699 | 34012 ft | 426 kts | 227° |
| 2026-04-29 16:25 | 29.97959 | -12.87788 | 34000 ft | 426 kts | 227° |
| 2026-04-29 16:25 | 29.94006 | -12.92872 | 34008 ft | 425 kts | 227° |
| 2026-04-29 16:26 | 29.89687 | -12.97477 | 34009 ft | 424 kts | 214° |
| 2026-04-29 16:26 | 29.84380 | -13.00301 | 33931 ft | 410 kts | 200° |
| 2026-04-29 16:26 | 29.81730 | -13.01314 | 33410 ft | 395 kts | 200° |
| 2026-04-29 16:27 | 29.79153 | -13.02306 | 32835 ft | 386 kts | 200° |
| 2026-04-29 16:27 | 29.76618 | -13.03287 | 32271 ft | 382 kts | 200° |
| 2026-04-29 16:27 | 29.74116 | -13.04255 | 31707 ft | 378 kts | 201° |
| 2026-04-29 16:27 | 29.71640 | -13.05214 | 31165 ft | 374 kts | 201° |
| 2026-04-29 16:28 | 29.69185 | -13.06168 | 30644 ft | 372 kts | 201° |
| 2026-04-29 16:28 | 29.66733 | -13.07121 | 30125 ft | 372 kts | 201° |
| 2026-04-29 16:28 | 29.64283 | -13.08073 | 29527 ft | 371 kts | 201° |
| 2026-04-29 16:28 | 29.61837 | -13.09023 | 28925 ft | 371 kts | 201° |
| 2026-04-29 16:29 | 29.59393 | -13.09968 | 28350 ft | 370 kts | 201° |
| 2026-04-29 16:29 | 29.56951 | -13.10908 | 27761 ft | 370 kts | 201° |
| 2026-04-29 16:29 | 29.54512 | -13.11845 | 27206 ft | 369 kts | 201° |
| 2026-04-29 16:29 | 29.52079 | -13.12784 | 26654 ft | 369 kts | 202° |
| 2026-04-29 16:30 | 29.49780 | -13.14234 | 26120 ft | 392 kts | 220° |
| 2026-04-29 16:30 | 29.47912 | -13.16635 | 25582 ft | 418 kts | 238° |
| 2026-04-29 16:30 | 29.46730 | -13.19770 | 25056 ft | 440 kts | 254° |
| 2026-04-29 16:30 | 29.46406 | -13.23306 | 24541 ft | 452 kts | 270° |
| 2026-04-29 16:31 | 29.46998 | -13.26821 | 24034 ft | 447 kts | 287° |
| 2026-04-29 16:31 | 29.48426 | -13.29906 | 23546 ft | 444 kts | 303° |
| 2026-04-29 16:31 | 29.50604 | -13.32396 | 22962 ft | 444 kts | 321° |
| 2026-04-29 16:31 | 29.53346 | -13.34047 | 22374 ft | 450 kts | 338° |
| 2026-04-29 16:32 | 29.56415 | -13.34711 | 21799 ft | 450 kts | 355° |
| 2026-04-29 16:32 | 29.59511 | -13.34320 | 21240 ft | 450 kts | 13° |
| 2026-04-29 16:32 | 29.62368 | -13.32907 | 20691 ft | 448 kts | 31° |
| 2026-04-29 16:32 | 29.64653 | -13.30543 | 20364 ft | 439 kts | 52° |
| 2026-04-29 16:33 | 29.66662 | -13.24279 | 19877 ft | 404 kts | 91° |
| 2026-04-29 16:33 | 29.66346 | -13.21191 | 19642 ft | 377 kts | 109° |
| 2026-04-29 16:33 | 29.65356 | -13.18517 | 19397 ft | 354 kts | 126° |
| 2026-04-29 16:34 | 29.63857 | -13.16350 | 19158 ft | 342 kts | 141° |
| 2026-04-29 16:34 | 29.61984 | -13.14746 | 18926 ft | 330 kts | 156° |
| 2026-04-29 16:34 | 29.59935 | -13.13763 | 18604 ft | 311 kts | 169° |
| 2026-04-29 16:34 | 29.57855 | -13.13384 | 18244 ft | 299 kts | 182° |
| 2026-04-29 16:35 | 29.55784 | -13.13375 | 17833 ft | 297 kts | 184° |
| 2026-04-29 16:35 | 29.53725 | -13.13373 | 17497 ft | 296 kts | 184° |
| 2026-04-29 16:35 | 29.51686 | -13.13483 | 17148 ft | 292 kts | 189° |
| 2026-04-29 16:35 | 29.49681 | -13.13843 | 16824 ft | 293 kts | 195° |
| 2026-04-29 16:36 | 29.47665 | -13.14476 | 16543 ft | 303 kts | 201° |
| 2026-04-29 16:36 | 29.45659 | -13.15252 | 16228 ft | 305 kts | 201° |
| 2026-04-29 16:36 | 29.43646 | -13.16028 | 15939 ft | 305 kts | 201° |
| 2026-04-29 16:36 | 29.41637 | -13.16800 | 15644 ft | 304 kts | 201° |
| 2026-04-29 16:37 | 29.39636 | -13.17568 | 15345 ft | 303 kts | 201° |
| 2026-04-29 16:37 | 29.37664 | -13.18323 | 15054 ft | 302 kts | 200° |
| 2026-04-29 16:37 | 29.35671 | -13.19080 | 14759 ft | 301 kts | 199° |
| 2026-04-29 16:37 | 29.34315 | -13.19552 | 14560 ft | 301 kts | 198° |
| 2026-04-29 16:38 | 29.31648 | -13.20407 | 14167 ft | 300 kts | 197° |
| 2026-04-29 16:38 | 29.29634 | -13.21025 | 13873 ft | 299 kts | 197° |
| 2026-04-29 16:38 | 29.27627 | -13.21641 | 13562 ft | 298 kts | 197° |
| 2026-04-29 16:38 | 29.25630 | -13.22262 | 13261 ft | 297 kts | 197° |
| 2026-04-29 16:39 | 29.23644 | -13.22887 | 13026 ft | 295 kts | 197° |
| 2026-04-29 16:39 | 29.21657 | -13.23529 | 12663 ft | 297 kts | 198° |
| 2026-04-29 16:39 | 29.19678 | -13.24193 | 12319 ft | 295 kts | 198° |
| 2026-04-29 16:39 | 29.17717 | -13.24859 | 11995 ft | 293 kts | 198° |
| 2026-04-29 16:40 | 29.15772 | -13.25522 | 11669 ft | 291 kts | 198° |
| 2026-04-29 16:40 | 29.13842 | -13.26179 | 11363 ft | 288 kts | 198° |
| 2026-04-29 16:40 | 29.11923 | -13.26829 | 11047 ft | 287 kts | 198° |
| 2026-04-29 16:40 | 29.10014 | -13.27475 | 10728 ft | 285 kts | 198° |
| 2026-04-29 16:41 | 29.08117 | -13.28112 | 10418 ft | 284 kts | 198° |
| 2026-04-29 16:41 | 29.06226 | -13.28749 | 10109 ft | 283 kts | 198° |
| 2026-04-29 16:41 | 29.04343 | -13.29385 | 9788 ft | 281 kts | 198° |
| 2026-04-29 16:41 | 29.02469 | -13.30016 | 9462 ft | 280 kts | 198° |
| 2026-04-29 16:42 | 29.00628 | -13.30636 | 9158 ft | 279 kts | 198° |
| 2026-04-29 16:42 | 28.98771 | -13.31259 | 8852 ft | 278 kts | 197° |
| 2026-04-29 16:42 | 28.96925 | -13.31894 | 8545 ft | 276 kts | 199° |
| 2026-04-29 16:42 | 28.95100 | -13.32571 | 8245 ft | 274 kts | 199° |
| 2026-04-29 16:43 | 28.93333 | -13.33250 | 8119 ft | 262 kts | 200° |
| 2026-04-29 16:43 | 28.91639 | -13.33873 | 7999 ft | 250 kts | 193° |
| 2026-04-29 16:43 | 28.89944 | -13.33984 | 7984 ft | 244 kts | 174° |
| 2026-04-29 16:43 | 28.88312 | -13.33429 | 7990 ft | 247 kts | 156° |
| 2026-04-29 16:44 | 28.86774 | -13.32559 | 7989 ft | 247 kts | 156° |
| 2026-04-29 16:44 | 28.85233 | -13.31689 | 7991 ft | 247 kts | 156° |
| 2026-04-29 16:44 | 28.83694 | -13.30823 | 7988 ft | 246 kts | 156° |
| 2026-04-29 16:44 | 28.82155 | -13.29960 | 7983 ft | 247 kts | 156° |
| 2026-04-29 16:45 | 28.80615 | -13.29098 | 7982 ft | 246 kts | 156° |
| 2026-04-29 16:45 | 28.79067 | -13.28260 | 7980 ft | 246 kts | 162° |
| 2026-04-29 16:45 | 28.77418 | -13.27835 | 7979 ft | 242 kts | 179° |
| 2026-04-29 16:45 | 28.75739 | -13.27878 | 7983 ft | 241 kts | 185° |
| 2026-04-29 16:46 | 28.74065 | -13.27972 | 7977 ft | 242 kts | 185° |
| 2026-04-29 16:46 | 28.72385 | -13.28062 | 7983 ft | 242 kts | 184° |
| 2026-04-29 16:46 | 28.70706 | -13.28150 | 7980 ft | 242 kts | 184° |
| 2026-04-29 16:46 | 28.69028 | -13.28254 | 7979 ft | 241 kts | 189° |
| 2026-04-29 16:47 | 28.67480 | -13.28899 | 7981 ft | 238 kts | 216° |
| 2026-04-29 16:47 | 28.66388 | -13.30292 | 7980 ft | 239 kts | 243° |
| 2026-04-29 16:47 | 28.65978 | -13.32127 | 7765 ft | 246 kts | 270° |
| 2026-04-29 16:47 | 28.66346 | -13.34028 | 7409 ft | 247 kts | 285° |
| 2026-04-29 16:48 | 28.66865 | -13.35877 | 7110 ft | 244 kts | 285° |
| 2026-04-29 16:48 | 28.67372 | -13.37714 | 6854 ft | 242 kts | 285° |
| 2026-04-29 16:48 | 28.67872 | -13.39544 | 6591 ft | 242 kts | 285° |
| 2026-04-29 16:48 | 28.68368 | -13.41371 | 6324 ft | 241 kts | 285° |
| 2026-04-29 16:49 | 28.68882 | -13.43181 | 6050 ft | 240 kts | 290° |
| 2026-04-29 16:49 | 28.69532 | -13.44920 | 5818 ft | 238 kts | 291° |
| 2026-04-29 16:49 | 28.70174 | -13.46648 | 5579 ft | 236 kts | 291° |
| 2026-04-29 16:49 | 28.70799 | -13.48339 | 5349 ft | 234 kts | 291° |
| 2026-04-29 16:50 | 28.71426 | -13.50039 | 5108 ft | 232 kts | 292° |
| 2026-04-29 16:50 | 28.72053 | -13.51732 | 4877 ft | 231 kts | 292° |
| 2026-04-29 16:50 | 28.72677 | -13.53417 | 4635 ft | 231 kts | 292° |
| 2026-04-29 16:50 | 28.73300 | -13.55097 | 4408 ft | 230 kts | 292° |
| 2026-04-29 16:51 | 28.73918 | -13.56764 | 4171 ft | 226 kts | 292° |
| 2026-04-29 16:51 | 28.74521 | -13.58393 | 3953 ft | 221 kts | 292° |
| 2026-04-29 16:51 | 28.75110 | -13.59990 | 3732 ft | 216 kts | 292° |
| 2026-04-29 16:51 | 28.75684 | -13.61543 | 3517 ft | 210 kts | 292° |
| 2026-04-29 16:52 | 28.76244 | -13.63063 | 3316 ft | 205 kts | 292° |
| 2026-04-29 16:52 | 28.76779 | -13.64513 | 3271 ft | 191 kts | 292° |
| 2026-04-29 16:52 | 28.77288 | -13.65889 | 3174 ft | 187 kts | 292° |
| 2026-04-29 16:52 | 28.77794 | -13.67244 | 3083 ft | 185 kts | 295° |
| 2026-04-29 16:53 | 28.78619 | -13.68347 | 2992 ft | 185 kts | 327° |
| 2026-04-29 16:53 | 28.79843 | -13.68754 | 2908 ft | 188 kts | 0° |
| 2026-04-29 16:53 | 28.81086 | -13.68333 | 2747 ft | 189 kts | 25° |
| 2026-04-29 16:53 | 28.82254 | -13.67649 | 2511 ft | 188 kts | 26° |
| 2026-04-29 16:54 | 28.83404 | -13.66978 | 2290 ft | 183 kts | 26° |
| 2026-04-29 16:54 | 28.84516 | -13.66333 | 2052 ft | 175 kts | 26° |
| 2026-04-29 16:54 | 28.85569 | -13.65723 | 1822 ft | 166 kts | 26° |
| 2026-04-29 16:54 | 28.86590 | -13.65132 | 1612 ft | 162 kts | 26° |
| 2026-04-29 16:55 | 28.87592 | -13.64552 | 1391 ft | 160 kts | 26° |
| 2026-04-29 16:55 | 28.88586 | -13.63977 | 1185 ft | 158 kts | 27° |
| 2026-04-29 16:55 | 28.89546 | -13.63422 | 972 ft | 151 kts | 29° |
| 2026-04-29 16:55 | 28.90427 | -13.62868 | 808 ft | 144 kts | 33° |
| 2026-04-29 16:56 | 28.91288 | -13.62353 | 535 ft | 140 kts | 26° |
| 2026-04-29 16:56 | 28.92166 | -13.61904 | 364 ft | 137 kts | 31° |
| 2026-04-29 16:56 | 28.93015 | -13.61405 | 196 ft | 138 kts | 30° |
| 2026-04-29 16:56 | 28.93879 | -13.60906 | 35 ft | 136 kts | 30° |
| 2026-04-29 16:57 | 28.94613 | -13.60479 | 34 ft | 103 kts | 27° |
| 2026-04-29 16:57 | 28.95144 | -13.60180 | 43 ft | 54 kts | 27° |
| 2026-04-29 16:57 | 28.95370 | -13.60051 | 42 ft | 22 kts | 26° |
| 2026-04-29 16:57 | 28.95482 | -13.60002 | 43 ft | 14 kts | 3° |
| 2026-04-29 16:58 | 28.95538 | -13.60073 | 46 ft | 11 kts | 295° |
| 2026-04-29 16:58 | 28.95543 | -13.60149 | 46 ft | 10 kts | 245° |
| 2026-04-29 16:58 | 28.95457 | -13.60204 | 45 ft | 16 kts | 204° |
| 2026-04-29 16:58 | 28.95386 | -13.60242 | 44 ft | 17 kts | 206° |
| 2026-04-29 16:59 | 28.95257 | -13.60316 | 42 ft | 11 kts | 207° |
| 2026-04-29 16:59 | 28.95188 | -13.60357 | 42 ft | 11 kts | 208° |
| 2026-04-29 16:59 | 28.95144 | -13.60385 | 41 ft | 11 kts | 209° |
| 2026-04-29 16:59 | 28.95117 | -13.60451 | 40 ft | 10 kts | 287° |
| 2026-04-29 17:00 | 28.95138 | -13.60521 | 40 ft | 9 kts | 264° |
| 2026-04-29 17:00 | 28.95097 | -13.60567 | 39 ft | 9 kts | 220° |
| 2026-04-29 17:00 | 28.95052 | -13.60612 | 39 ft | 9 kts | 217° |
| 2026-04-29 17:00 | 28.95020 | -13.60638 | 38 ft | 3 kts | 241° |
| 2026-04-29 17:01 | 28.95030 | -13.60671 | 38 ft | 5 kts | 295° |
| 2026-04-29 17:01 | 28.95044 | -13.60705 | 38 ft | 4 kts | 296° |
| 2026-04-29 17:01 | 28.95053 | -13.60726 | 38 ft | 0 kts | 296° |